createdAt,value
2023-04-17T00:02:02.319Z,9.30
2023-04-17T00:04:31.185Z,9.30
2023-04-17T00:06:59.403Z,9.30
2023-04-17T00:09:27.771Z,9.30
2023-04-17T00:11:55.968Z,9.30
2023-04-17T00:14:28.654Z,9.40
2023-04-17T00:16:56.906Z,9.30
2023-04-17T00:19:25.046Z,9.30
2023-04-17T00:21:54.985Z,9.70
2023-04-17T00:24:23.277Z,9.30
2023-04-17T00:26:51.728Z,9.20
2023-04-17T00:29:20.184Z,9.20
2023-04-17T00:31:50.083Z,9.20
2023-04-17T00:34:21.020Z,9.20
2023-04-17T00:36:57.428Z,9.70
2023-04-17T00:39:28.292Z,9.20
2023-04-17T00:41:59.614Z,9.20
2023-04-17T00:44:28.211Z,9.20
2023-04-17T00:47:01.696Z,10.10
2023-04-17T00:49:37.213Z,9.30
2023-04-17T00:52:06.554Z,9.30
2023-04-17T00:54:43.468Z,9.30
2023-04-17T00:57:26.880Z,9.10
2023-04-17T01:00:03.247Z,9.30
2023-04-17T01:02:34.350Z,9.60
2023-04-17T01:05:02.868Z,9.30
2023-04-17T01:07:32.070Z,10.50
2023-04-17T01:10:00.834Z,9.30
2023-04-17T01:12:29.670Z,9.40
2023-04-17T01:14:58.846Z,9.30
2023-04-17T01:17:27.922Z,9.30
2023-04-17T01:19:58.836Z,9.50
2023-04-17T01:22:27.436Z,9.30
2023-04-17T01:25:01.206Z,9.30
2023-04-17T01:27:36.342Z,9.30
2023-04-17T01:30:05.038Z,9.30
2023-04-17T01:32:39.249Z,9.30
2023-04-17T01:35:08.460Z,9.40
2023-04-17T01:37:38.928Z,9.30
2023-04-17T01:40:12.864Z,9.30
2023-04-17T01:43:04.304Z,9.30
2023-04-17T01:45:42.020Z,9.60
2023-04-17T01:48:21.497Z,9.30
2023-04-17T01:51:07.564Z,9.60
2023-04-17T01:53:42.555Z,9.30
2023-04-17T01:56:23.459Z,9.30
2023-04-17T01:58:59.653Z,9.40
2023-04-17T02:01:45.528Z,9.30
2023-04-17T02:04:20.642Z,9.30
2023-04-17T02:06:52.470Z,9.30
2023-04-17T02:09:23.784Z,9.40
2023-04-17T02:11:56.983Z,9.30
2023-04-17T02:14:26.437Z,9.30
2023-04-17T02:16:54.995Z,9.30
2023-04-17T02:19:23.316Z,9.30
2023-04-17T02:21:51.582Z,9.30
2023-04-17T02:24:19.719Z,9.30
2023-04-17T02:26:47.831Z,9.30
2023-04-17T02:29:17.280Z,9.30
2023-04-17T02:31:45.393Z,9.30
2023-04-17T02:34:13.736Z,9.30
2023-04-17T02:36:45.337Z,9.30
2023-04-17T02:39:14.674Z,9.30
2023-04-17T02:41:43.393Z,9.30
2023-04-17T02:44:12.135Z,9.40
2023-04-17T02:46:44.411Z,9.30
2023-04-17T02:49:13.085Z,9.30
2023-04-17T02:51:41.509Z,9.30
2023-04-17T02:54:09.643Z,9.40
2023-04-17T02:56:37.951Z,9.30
2023-04-17T02:59:06.080Z,9.30
2023-04-17T03:01:37.811Z,9.20
2023-04-17T03:04:08.334Z,9.30
2023-04-17T03:06:36.516Z,9.30
2023-04-17T03:09:06.086Z,9.30
2023-04-17T03:11:34.365Z,9.30
2023-04-17T03:14:02.627Z,9.30
2023-04-17T03:16:31.124Z,9.30
2023-04-17T03:19:03.303Z,9.30
2023-04-17T03:21:32.979Z,9.30
2023-04-17T03:24:01.527Z,9.20
2023-04-17T03:26:29.884Z,9.20
2023-04-17T03:29:01.799Z,9.20
2023-04-17T03:31:30.000Z,9.20
2023-04-17T03:33:58.409Z,9.20
2023-04-17T03:36:27.164Z,9.20
2023-04-17T03:38:57.722Z,9.20
2023-04-17T03:41:26.337Z,9.20
2023-04-17T03:43:55.564Z,9.20
2023-04-17T03:46:23.785Z,9.20
2023-04-17T03:48:51.974Z,9.20
2023-04-17T03:51:20.677Z,9.20
2023-04-17T03:53:49.708Z,9.20
2023-04-17T03:56:19.429Z,9.20
2023-04-17T03:58:47.663Z,9.20
2023-04-17T04:01:18.840Z,9.20
2023-04-17T04:04:07.327Z,9.20
2023-04-17T04:06:37.544Z,9.20
2023-04-17T04:09:06.649Z,9.20
2023-04-17T04:11:36.206Z,9.10
2023-04-17T04:14:04.558Z,9.10
2023-04-17T04:16:35.119Z,9.10
2023-04-17T04:19:12.124Z,9.10
2023-04-17T04:21:42.069Z,9.10
2023-04-17T04:24:14.639Z,9.20
2023-04-17T04:26:47.395Z,9.20
2023-04-17T04:29:15.779Z,9.30
2023-04-17T04:31:53.370Z,9.20
2023-04-17T04:34:25.954Z,9.30
2023-04-17T04:36:54.457Z,9.30
2023-04-17T04:39:31.635Z,9.30
2023-04-17T04:42:05.900Z,9.30
2023-04-17T04:44:45.167Z,9.20
2023-04-17T04:47:14.455Z,9.20
2023-04-17T04:49:43.116Z,9.10
2023-04-17T04:52:11.834Z,9.20
2023-04-17T04:54:40.835Z,9.10
2023-04-17T04:57:13.776Z,9.10
2023-04-17T04:59:47.096Z,9.10
2023-04-17T05:02:35.894Z,9.10
2023-04-17T05:05:08.271Z,9.10
2023-04-17T05:07:36.688Z,9.10
2023-04-17T05:10:08.673Z,9.20
2023-04-17T05:12:44.465Z,9.20
2023-04-17T05:15:14.431Z,9.20
2023-04-17T05:17:43.283Z,9.20
2023-04-17T05:20:13.321Z,9.20
2023-04-17T05:22:49.977Z,9.20
2023-04-17T05:25:19.707Z,9.20
2023-04-17T05:27:50.105Z,9.60
2023-04-17T05:30:19.257Z,9.30
2023-04-17T05:32:53.997Z,9.30
2023-04-17T05:35:37.572Z,9.40
2023-04-17T05:38:08.099Z,9.40
2023-04-17T05:40:36.826Z,9.40
2023-04-17T05:43:11.159Z,9.40
2023-04-17T05:45:42.190Z,9.40
2023-04-17T05:48:11.197Z,9.40
2023-04-17T05:50:39.440Z,9.60
2023-04-17T05:53:09.296Z,9.40
2023-04-17T05:55:44.528Z,9.40
2023-04-17T06:00:48.846Z,9.40
2023-04-17T06:03:22.983Z,9.50
2023-04-17T06:05:59.380Z,9.40
2023-04-17T06:08:28.108Z,9.40
2023-04-17T06:10:57.157Z,9.80
2023-04-17T06:13:29.427Z,9.60
2023-04-17T06:15:58.750Z,9.60
2023-04-17T06:18:27.229Z,9.50
2023-04-17T06:20:59.071Z,9.50
2023-04-17T06:23:29.387Z,9.80
2023-04-17T06:25:57.897Z,9.60
2023-04-17T06:28:27.299Z,9.70
2023-04-17T06:30:56.595Z,9.80
2023-04-17T06:33:26.792Z,9.90
2023-04-17T06:35:56.451Z,10.00
2023-04-17T06:38:40.967Z,10.10
2023-04-17T06:41:11.539Z,10.30
2023-04-17T06:43:43.081Z,10.40
2023-04-17T06:46:17.176Z,10.50
2023-04-17T06:48:45.486Z,10.80
2023-04-17T06:51:13.667Z,10.90
2023-04-17T06:53:41.763Z,10.90
2023-04-17T06:56:09.863Z,11.00
2023-04-17T06:58:44.315Z,11.00
2023-04-17T07:01:15.961Z,11.10
2023-04-17T07:03:44.971Z,11.20
2023-04-17T07:06:13.762Z,11.20
2023-04-17T07:08:41.841Z,11.30
2023-04-17T07:11:10.194Z,11.30
2023-04-17T07:13:39.909Z,11.30
2023-04-17T07:16:08.633Z,11.30
2023-04-17T07:18:38.284Z,11.30
2023-04-17T07:21:06.600Z,11.40
2023-04-17T07:23:34.715Z,11.40
2023-04-17T07:26:02.779Z,11.50
2023-04-17T07:28:32.251Z,11.60
2023-04-17T07:31:08.278Z,11.60
2023-04-17T07:33:43.105Z,11.70
2023-04-17T07:36:12.271Z,12.00
2023-04-17T07:38:41.273Z,11.90
2023-04-17T07:41:09.348Z,12.10
2023-04-17T07:43:37.363Z,12.30
2023-04-17T07:46:05.733Z,12.60
2023-04-17T07:48:34.303Z,12.80
2023-04-17T07:51:03.770Z,12.90
2023-04-17T07:53:32.213Z,12.90
2023-04-17T07:56:00.788Z,13.00
2023-04-17T07:58:29.106Z,13.00
2023-04-17T08:00:57.969Z,12.90
2023-04-17T08:03:26.300Z,12.90
2023-04-17T08:05:54.673Z,12.80
2023-04-17T08:08:25.258Z,12.70
2023-04-17T08:10:53.479Z,12.70
2023-04-17T08:13:21.521Z,12.70
2023-04-17T08:15:52.191Z,12.70
2023-04-17T08:18:20.464Z,12.50
2023-04-17T08:20:48.652Z,12.30
2023-04-17T08:23:16.814Z,12.10
2023-04-17T08:25:46.974Z,12.00
2023-04-17T08:28:15.537Z,12.10
2023-04-17T08:30:43.664Z,12.20
2023-04-17T08:33:13.524Z,12.50
2023-04-17T08:35:41.702Z,12.60
2023-04-17T08:38:10.439Z,13.00
2023-04-17T08:40:42.231Z,13.20
2023-04-17T08:43:21.740Z,13.40
2023-04-17T08:45:55.482Z,13.40
2023-04-17T08:48:25.220Z,13.50
2023-04-17T08:50:55.486Z,13.70
2023-04-17T08:53:23.640Z,14.40
2023-04-17T08:55:51.818Z,13.90
2023-04-17T08:58:23.878Z,14.00
2023-04-17T09:00:51.946Z,14.10
2023-04-17T09:03:20.279Z,14.10
2023-04-17T09:05:49.182Z,13.90
2023-04-17T09:08:21.091Z,13.70
2023-04-17T09:10:51.123Z,13.70
2023-04-17T09:13:24.231Z,13.30
2023-04-17T09:16:06.228Z,13.10
2023-04-17T09:18:36.257Z,13.00
2023-04-17T09:21:09.972Z,12.70
2023-04-17T09:23:51.191Z,12.70
2023-04-17T09:26:22.008Z,12.90
2023-04-17T09:29:07.876Z,12.60
2023-04-17T09:31:38.028Z,12.70
2023-04-17T09:34:08.475Z,12.90
2023-04-17T09:36:38.243Z,13.00
2023-04-17T09:39:17.094Z,13.10
2023-04-17T09:41:45.932Z,13.20
2023-04-17T09:44:29.967Z,13.20
2023-04-17T09:46:58.938Z,13.30
2023-04-17T09:49:35.064Z,13.30
2023-04-17T09:52:05.008Z,13.20
2023-04-17T09:54:41.840Z,13.60
2023-04-17T09:57:13.017Z,12.80
2023-04-17T09:59:45.527Z,12.70
2023-04-17T10:02:15.490Z,12.40
2023-04-17T10:04:45.147Z,12.20
2023-04-17T10:07:14.125Z,12.00
2023-04-17T10:09:45.560Z,11.90
2023-04-17T10:12:17.033Z,11.80
2023-04-17T10:14:49.051Z,11.70
2023-04-17T10:17:24.628Z,11.70
2023-04-17T10:19:53.123Z,11.60
2023-04-17T10:22:31.779Z,11.50
2023-04-17T10:25:20.017Z,11.40
2023-04-17T10:27:51.775Z,11.40
2023-04-17T10:30:23.812Z,11.30
2023-04-17T10:33:26.120Z,11.30
2023-04-17T10:35:54.877Z,11.30
2023-04-17T10:38:38.367Z,11.40
2023-04-17T10:41:11.232Z,11.60
2023-04-17T10:43:43.534Z,11.90
2023-04-17T10:46:14.402Z,12.10
2023-04-17T10:48:49.500Z,12.40
2023-04-17T10:51:43.830Z,12.60
2023-04-17T10:54:16.080Z,12.80
2023-04-17T10:56:48.061Z,12.90
2023-04-17T10:59:17.568Z,13.10
2023-04-17T11:02:04.378Z,13.10
2023-04-17T11:04:34.381Z,12.90
2023-04-17T11:07:04.899Z,12.90
2023-04-17T11:09:36.159Z,12.80
2023-04-17T11:12:04.964Z,12.90
2023-04-17T11:14:33.653Z,12.90
2023-04-17T11:17:03.161Z,13.00
2023-04-17T11:19:33.655Z,13.10
2023-04-17T11:22:02.842Z,13.30
2023-04-17T11:24:36.372Z,13.30
2023-04-17T11:27:04.683Z,13.30
2023-04-17T11:29:32.799Z,13.40
2023-04-17T11:32:02.264Z,13.50
2023-04-17T11:34:31.444Z,13.60
2023-04-17T11:37:02.196Z,13.70
2023-04-17T11:39:32.493Z,14.00
2023-04-17T11:42:02.342Z,14.20
2023-04-17T11:44:30.958Z,14.50
2023-04-17T11:46:59.936Z,14.60
2023-04-17T11:49:30.924Z,14.70
2023-04-17T11:52:02.164Z,14.80
2023-04-17T11:54:31.587Z,14.70
2023-04-17T11:57:01.362Z,14.60
2023-04-17T11:59:33.110Z,14.60
2023-04-17T12:02:02.413Z,14.50
2023-04-17T12:04:34.258Z,14.40
2023-04-17T12:07:03.895Z,14.30
2023-04-17T12:09:32.864Z,14.20
2023-04-17T12:12:04.034Z,14.00
2023-04-17T12:14:32.562Z,13.80
2023-04-17T12:17:01.439Z,13.70
2023-04-17T12:19:31.876Z,13.50
2023-04-17T12:22:03.396Z,13.40
2023-04-17T12:24:34.803Z,13.20
2023-04-17T12:27:04.356Z,13.10
2023-04-17T12:29:43.723Z,12.90
2023-04-17T12:32:13.191Z,12.80
2023-04-17T12:34:42.810Z,12.80
2023-04-17T12:37:11.579Z,12.80
2023-04-17T12:39:39.938Z,12.70
2023-04-17T12:42:08.026Z,12.70
2023-04-17T12:44:36.307Z,12.60
2023-04-17T12:47:04.611Z,12.50
2023-04-17T12:49:33.863Z,12.30
2023-04-17T12:52:03.972Z,12.10
2023-04-17T12:54:33.356Z,12.00
2023-04-17T12:57:02.336Z,11.90
2023-04-17T12:59:30.597Z,11.70
2023-04-17T13:01:58.777Z,11.60
2023-04-17T13:04:29.707Z,11.50
2023-04-17T13:06:58.104Z,11.40
2023-04-17T13:09:27.586Z,11.50
2023-04-17T13:11:55.741Z,11.10
2023-04-17T13:14:23.952Z,11.10
2023-04-17T13:16:55.857Z,11.20
2023-04-17T13:19:24.543Z,11.20
2023-04-17T13:21:53.124Z,11.40
2023-04-17T13:24:21.263Z,11.60
2023-04-17T13:26:50.883Z,11.80
2023-04-17T13:29:19.757Z,12.20
2023-04-17T13:31:50.784Z,12.20
2023-04-17T13:34:19.653Z,12.50
2023-04-17T13:36:48.066Z,12.70
2023-04-17T13:39:16.502Z,12.90
2023-04-17T13:41:44.684Z,13.00
2023-04-17T13:44:16.564Z,13.20
2023-04-17T13:46:44.742Z,13.20
2023-04-17T13:49:13.304Z,13.40
2023-04-17T13:51:41.557Z,13.40
2023-04-17T13:54:12.353Z,13.50
2023-04-17T13:56:43.535Z,13.50
2023-04-17T13:59:11.812Z,13.50
2023-04-17T14:01:41.634Z,13.50
2023-04-17T14:04:10.096Z,13.40
2023-04-17T14:06:38.538Z,13.40
2023-04-17T14:09:07.462Z,13.20
2023-04-17T14:11:35.816Z,13.20
2023-04-17T14:14:04.025Z,12.90
2023-04-17T14:16:34.008Z,12.80
2023-04-17T14:21:42.349Z,12.50
2023-04-17T14:24:12.967Z,12.40
2023-04-17T14:26:42.052Z,12.40
2023-04-17T14:29:10.679Z,12.30
2023-04-17T14:31:41.897Z,12.20
2023-04-17T14:34:11.451Z,12.20
2023-04-17T14:36:39.887Z,12.10
2023-04-17T14:39:11.125Z,12.10
2023-04-17T14:41:41.362Z,12.10
2023-04-17T14:44:09.764Z,12.10
2023-04-17T14:46:38.186Z,12.20
2023-04-17T14:49:06.334Z,12.30
2023-04-17T14:51:35.761Z,12.40
2023-04-17T14:54:03.909Z,12.50
2023-04-17T14:56:32.077Z,12.60
2023-04-17T14:59:01.473Z,12.70
2023-04-17T15:01:29.739Z,12.70
2023-04-17T15:03:58.334Z,12.70
2023-04-17T15:06:27.052Z,12.80
2023-04-17T15:08:57.170Z,12.80
2023-04-17T15:11:25.768Z,12.80
2023-04-17T15:13:53.845Z,12.80
2023-04-17T15:16:22.029Z,12.70
2023-04-17T15:18:51.403Z,12.70
2023-04-17T15:21:19.768Z,12.70
2023-04-17T15:23:47.838Z,12.70
2023-04-17T15:26:17.387Z,12.80
2023-04-17T15:28:45.808Z,12.80
2023-04-17T15:31:16.264Z,12.90
2023-04-17T15:33:47.376Z,12.90
2023-04-17T15:36:15.952Z,13.00
2023-04-17T15:38:44.056Z,12.90
2023-04-17T15:41:12.145Z,12.80
2023-04-17T15:43:41.615Z,12.70
2023-04-17T15:46:09.908Z,12.60
2023-04-17T15:48:38.250Z,12.60
2023-04-17T15:51:07.001Z,12.60
2023-04-17T15:53:36.256Z,12.60
2023-04-17T15:56:06.296Z,12.60
2023-04-17T15:58:34.405Z,12.60
2023-04-17T16:01:07.208Z,12.60
2023-04-17T16:03:37.381Z,12.60
2023-04-17T16:06:06.404Z,12.50
2023-04-17T16:08:34.470Z,12.50
2023-04-17T16:11:02.593Z,12.30
2023-04-17T16:13:30.755Z,12.30
2023-04-17T16:15:58.751Z,12.20
2023-04-17T16:18:28.359Z,12.10
2023-04-17T16:20:56.712Z,12.00
2023-04-17T16:23:24.727Z,12.00
2023-04-17T16:25:56.279Z,11.90
2023-04-17T16:28:25.364Z,11.90
2023-04-17T16:30:53.587Z,11.80
2023-04-17T16:33:21.746Z,11.80
2023-04-17T16:35:51.161Z,11.80
2023-04-17T16:38:19.256Z,11.70
2023-04-17T16:40:47.300Z,11.80
2023-04-17T16:43:15.397Z,11.70
2023-04-17T16:45:43.525Z,11.70
2023-04-17T16:48:12.329Z,11.60
2023-04-17T16:50:40.468Z,11.60
2023-04-17T16:53:10.901Z,11.60
2023-04-17T16:55:39.032Z,11.60
2023-04-17T16:58:07.093Z,11.60
2023-04-17T17:00:37.880Z,11.60
2023-04-17T17:03:07.870Z,11.50
2023-04-17T17:05:36.471Z,11.50
2023-04-17T17:08:09.225Z,11.50
2023-04-17T17:10:37.498Z,11.50
2023-04-17T17:13:06.425Z,11.50
2023-04-17T17:15:34.688Z,11.50
2023-04-17T17:18:07.924Z,11.30
2023-04-17T17:20:36.141Z,11.30
2023-04-17T17:23:04.416Z,11.30
2023-04-17T17:25:37.094Z,11.30
2023-04-17T17:28:05.292Z,11.30
2023-04-17T17:30:33.373Z,11.30
2023-04-17T17:33:01.489Z,11.30
2023-04-17T17:35:29.880Z,11.20
2023-04-17T17:37:58.427Z,11.30
2023-04-17T17:40:26.501Z,11.30
2023-04-17T17:42:56.013Z,11.20
2023-04-17T17:45:24.874Z,11.20
2023-04-17T17:47:53.100Z,11.20
2023-04-17T17:50:22.097Z,11.10
2023-04-17T17:52:50.207Z,11.10
2023-04-17T17:55:18.486Z,11.10
2023-04-17T17:57:49.563Z,11.10
2023-04-17T18:00:19.851Z,11.10
2023-04-17T18:02:52.750Z,11.10
2023-04-17T18:05:21.128Z,11.00
2023-04-17T18:07:49.187Z,11.00
2023-04-17T18:10:17.713Z,10.90
2023-04-17T18:12:46.000Z,10.90
2023-04-17T18:15:14.430Z,10.90
2023-04-17T18:17:44.446Z,10.90
2023-04-17T18:20:12.999Z,10.90
2023-04-17T18:22:41.139Z,10.80
2023-04-17T18:25:10.213Z,10.80
2023-04-17T18:27:38.830Z,10.80
2023-04-17T18:30:08.793Z,10.80
2023-04-17T18:32:39.934Z,10.80
2023-04-17T18:35:11.058Z,10.80
2023-04-17T18:37:43.442Z,10.80
2023-04-17T18:40:13.045Z,10.70
2023-04-17T18:42:42.345Z,10.80
2023-04-17T18:45:13.652Z,10.80
2023-04-17T18:47:42.135Z,10.70
2023-04-17T18:50:13.088Z,10.70
2023-04-17T18:52:48.202Z,10.60
2023-04-17T18:55:21.291Z,10.70
2023-04-17T18:57:49.958Z,10.70
2023-04-17T19:00:18.327Z,10.70
2023-04-17T19:02:47.894Z,10.70
2023-04-17T19:05:17.524Z,10.70
2023-04-17T19:07:45.783Z,10.80
2023-04-17T19:10:14.074Z,10.70
2023-04-17T19:12:43.993Z,10.70
2023-04-17T19:15:12.565Z,10.70
2023-04-17T19:17:40.820Z,10.60
2023-04-17T19:20:10.711Z,10.60
2023-04-17T19:22:40.377Z,10.50
2023-04-17T19:25:09.367Z,10.50
2023-04-17T19:27:38.133Z,10.40
2023-04-17T19:30:08.727Z,10.40
2023-04-17T19:32:37.280Z,10.40
2023-04-17T19:35:06.322Z,10.40
2023-04-17T19:37:34.595Z,10.40
2023-04-17T19:40:08.541Z,10.50
2023-04-17T19:42:42.734Z,10.30
2023-04-17T19:45:14.649Z,10.30
2023-04-17T19:47:42.781Z,10.30
2023-04-17T19:50:14.488Z,10.30
2023-04-17T19:52:43.137Z,10.30
2023-04-17T19:55:13.424Z,10.30
2023-04-17T19:57:44.699Z,10.20
2023-04-17T20:00:14.453Z,10.20
2023-04-17T20:02:44.623Z,10.20
2023-04-17T20:05:12.925Z,10.20
2023-04-17T20:07:41.232Z,10.20
2023-04-17T20:10:10.358Z,10.10
2023-04-17T20:12:39.811Z,10.10
2023-04-17T20:15:09.009Z,10.10
2023-04-17T20:17:37.288Z,10.10
2023-04-17T20:20:06.635Z,10.10
2023-04-17T20:22:34.711Z,10.10
2023-04-17T20:25:03.087Z,10.50
2023-04-17T20:27:31.160Z,10.10
2023-04-17T20:30:00.863Z,10.00
2023-04-17T20:32:29.134Z,10.00
2023-04-17T20:34:57.342Z,10.00
2023-04-17T20:37:25.419Z,10.00
2023-04-17T20:39:55.692Z,10.10
2023-04-17T20:42:23.935Z,10.00
2023-04-17T20:44:52.144Z,10.00
2023-04-17T20:47:22.497Z,10.00
2023-04-17T20:49:51.991Z,9.90
2023-04-17T20:52:20.221Z,10.00
2023-04-17T20:54:48.407Z,10.00
2023-04-17T20:57:16.589Z,9.90
2023-04-17T20:59:44.795Z,9.90
2023-04-17T21:02:13.491Z,9.90
2023-04-17T21:04:43.534Z,9.90
2023-04-17T21:07:11.898Z,9.90
2023-04-17T21:09:40.095Z,9.80
2023-04-17T21:12:08.873Z,9.80
2023-04-17T21:14:37.502Z,9.80
2023-04-17T21:17:05.795Z,9.80
2023-04-17T21:19:36.969Z,9.90
2023-04-17T21:22:06.545Z,9.80
2023-04-17T21:24:34.931Z,9.90
2023-04-17T21:27:03.091Z,9.70
2023-04-17T21:29:34.052Z,9.70
2023-04-17T21:32:02.637Z,9.60
2023-04-17T21:34:32.495Z,9.60
2023-04-17T21:37:04.005Z,9.60
2023-04-17T21:39:33.652Z,9.50
2023-04-17T21:42:01.952Z,9.50
2023-04-17T21:44:30.617Z,9.50
2023-04-17T21:47:00.468Z,9.40
2023-04-17T21:49:30.020Z,9.40
2023-04-17T21:51:58.377Z,9.40
2023-04-17T21:54:27.500Z,9.30
2023-04-17T21:56:56.888Z,9.30
2023-04-17T21:59:25.173Z,9.20
2023-04-17T22:01:53.447Z,9.20
2023-04-17T22:04:21.637Z,9.20
2023-04-17T22:06:51.663Z,9.20
2023-04-17T22:09:21.017Z,9.20
2023-04-17T22:11:49.370Z,9.20
2023-04-17T22:14:18.978Z,9.10
2023-04-17T22:16:47.105Z,9.10
2023-04-17T22:19:15.986Z,9.20
2023-04-17T22:21:44.184Z,9.10
2023-04-17T22:24:13.498Z,9.20
2023-04-17T22:26:41.764Z,9.10
2023-04-17T22:29:09.915Z,9.20
2023-04-17T22:31:40.438Z,9.10
2023-04-17T22:34:08.537Z,9.10
2023-04-17T22:36:39.058Z,9.10
2023-04-17T22:39:07.188Z,9.00
2023-04-17T22:41:35.581Z,9.00
2023-04-17T22:44:06.134Z,9.00
2023-04-17T22:46:34.241Z,9.00
2023-04-17T22:49:05.749Z,8.90
2023-04-17T22:51:34.688Z,8.90
2023-04-17T22:54:11.472Z,8.90
2023-04-17T22:56:47.535Z,8.90
2023-04-17T22:59:15.638Z,8.80
2023-04-17T23:01:43.840Z,8.80
2023-04-17T23:04:13.526Z,8.80
2023-04-17T23:06:42.452Z,8.80
2023-04-17T23:09:10.634Z,8.80
2023-04-17T23:11:38.732Z,8.70
2023-04-17T23:14:07.207Z,8.80
2023-04-17T23:16:35.409Z,8.70
2023-04-17T23:19:03.791Z,8.70
2023-04-17T23:21:33.330Z,8.70
2023-04-17T23:24:01.662Z,8.70
2023-04-17T23:26:29.868Z,8.70
2023-04-17T23:28:57.922Z,8.60
2023-04-17T23:31:26.235Z,8.60
2023-04-17T23:33:54.463Z,8.50
2023-04-17T23:36:22.707Z,8.50
2023-04-17T23:38:54.033Z,8.40
2023-04-17T23:41:22.149Z,8.40
2023-04-17T23:43:54.196Z,8.30
2023-04-17T23:46:22.693Z,8.20
2023-04-17T23:48:50.835Z,8.10
2023-04-17T23:51:19.059Z,8.00
2023-04-17T23:54:01.800Z,7.90
2023-04-17T23:56:53.280Z,7.90
2023-04-17T23:59:28.712Z,7.60
